createdAt,value
2018-03-17T00:00:27.387Z,7.63
2018-03-17T00:06:28.206Z,7.78
2018-03-17T00:10:28.944Z,7.47
2018-03-17T00:16:29.668Z,8.38
2018-03-17T00:20:30.405Z,8.65
2018-03-17T00:22:31.070Z,7.59
2018-03-17T00:26:31.871Z,7.68
2018-03-17T00:32:32.672Z,10.41
2018-03-17T00:36:33.353Z,9.74
2018-03-17T00:42:34.158Z,10.73
2018-03-17T00:46:34.981Z,10.21
2018-03-17T00:48:35.779Z,9.76
2018-03-17T00:52:36.470Z,8.88
2018-03-17T00:58:37.322Z,9.11
2018-03-17T01:02:38.017Z,7.91
2018-03-17T01:08:38.770Z,8.21
2018-03-17T01:12:39.514Z,8.37
2018-03-17T01:14:40.246Z,9.35
2018-03-17T01:18:40.967Z,9.65
2018-03-17T01:24:41.779Z,10.62
2018-03-17T01:28:42.463Z,9.63
2018-03-17T01:34:43.344Z,9.88
2018-03-17T01:38:44.135Z,9.92
2018-03-17T01:40:45.084Z,9.87
2018-03-17T01:44:45.880Z,9.26
2018-03-17T01:50:46.697Z,9.57
2018-03-17T01:54:47.517Z,9.84
2018-03-17T02:00:48.363Z,11.17
2018-03-17T02:04:49.142Z,11.2
2018-03-17T02:06:49.772Z,11.43
2018-03-17T02:10:50.714Z,11.88
2018-03-17T02:16:51.402Z,14.96
2018-03-17T02:20:52.222Z,15.21
2018-03-17T02:26:53.028Z,14.6
2018-03-17T02:30:53.817Z,14.49
2018-03-17T02:32:54.710Z,13.16
2018-03-17T02:36:55.573Z,13.36
2018-03-17T02:42:56.338Z,12.57
2018-03-17T02:46:57.164Z,11.77
2018-03-17T02:52:58.006Z,12.11
2018-03-17T02:56:58.686Z,11.28
2018-03-17T02:58:59.481Z,12.53
2018-03-17T03:03:00.284Z,13.48
2018-03-17T03:09:01.056Z,14.07
2018-03-17T03:13:01.978Z,14.69
2018-03-17T03:19:02.591Z,14.97
2018-03-17T03:23:03.422Z,14.69
2018-03-17T03:25:04.210Z,15.51
2018-03-17T03:29:04.888Z,14.75
2018-03-17T03:35:05.661Z,16.61
2018-03-17T03:39:06.416Z,16.5
2018-03-17T03:45:07.830Z,15.29
2018-03-17T03:49:08.555Z,15.24
2018-03-17T03:51:09.331Z,15.75
2018-03-17T03:55:10.204Z,15.67
2018-03-17T04:01:10.942Z,15.88
2018-03-17T04:05:11.769Z,15.67
2018-03-17T04:11:12.613Z,16.08
2018-03-17T04:15:13.656Z,16.72
2018-03-17T04:17:14.409Z,17.16
2018-03-17T04:21:15.037Z,17.27
2018-03-17T04:27:15.781Z,18.69
2018-03-17T04:31:16.598Z,19.9
2018-03-17T04:37:17.342Z,18.88
2018-03-17T04:41:18.300Z,18.34
2018-03-17T04:43:18.946Z,20.03
2018-03-17T04:47:19.682Z,20.27
2018-03-17T04:53:20.515Z,19.7
2018-03-17T04:57:21.288Z,20.67
2018-03-17T05:03:22.078Z,21.03
2018-03-17T05:07:22.817Z,21.5
2018-03-17T05:09:23.540Z,20.24
2018-03-17T05:13:24.335Z,21.12
2018-03-17T05:19:25.137Z,21.32
2018-03-17T05:23:25.818Z,20.97
2018-03-17T05:29:26.551Z,22.03
2018-03-17T05:33:27.490Z,22.13
2018-03-17T05:35:28.206Z,22.41
2018-03-17T05:39:28.951Z,22.54
2018-03-17T05:45:30.294Z,21.78
2018-03-17T05:49:30.931Z,21.9
2018-03-17T05:55:31.688Z,23.27
2018-03-17T05:59:32.447Z,24.13
2018-03-17T06:01:33.147Z,24.18
2018-03-17T06:05:33.936Z,23.38
2018-03-17T06:11:34.710Z,24.54
2018-03-17T06:15:35.441Z,24.13
2018-03-17T06:21:36.174Z,21.93
2018-03-17T06:25:36.964Z,23.38
2018-03-17T06:27:37.728Z,24.38
2018-03-17T06:31:38.566Z,24.23
2018-03-17T06:37:39.273Z,22.39
2018-03-17T06:41:40.013Z,22.41
2018-03-17T06:47:40.706Z,21.93
2018-03-17T06:51:41.385Z,21.99
2018-03-17T06:53:42.128Z,21.7
2018-03-17T06:57:42.888Z,22.27
2018-03-17T07:03:43.642Z,21.08
2018-03-17T07:07:44.388Z,21.31
2018-03-17T07:13:45.131Z,10.02
2018-03-17T07:17:45.935Z,9.61
2018-03-17T07:19:46.544Z,11.42
2018-03-17T07:23:47.310Z,11.18
2018-03-17T07:29:48.170Z,9.29
2018-03-17T07:33:49.152Z,9.54
2018-03-17T07:39:49.997Z,7.78
2018-03-17T07:43:50.641Z,7.74
2018-03-17T07:45:51.348Z,7.94
2018-03-17T07:49:52.216Z,8.1
2018-03-17T07:55:52.957Z,9.74
2018-03-17T07:59:53.786Z,10.6
2018-03-17T08:05:54.644Z,12.82
2018-03-17T08:09:55.403Z,13.31
2018-03-17T08:11:56.136Z,13.06
2018-03-17T08:15:56.839Z,13.54
2018-03-17T08:21:57.678Z,13.02
2018-03-17T08:25:58.508Z,13.72
2018-03-17T08:31:59.472Z,15.03
2018-03-17T08:36:00.221Z,15.07
2018-03-17T08:38:01.083Z,13.19
2018-03-17T08:42:01.885Z,12.79
2018-03-17T08:48:03.712Z,13.06
2018-03-17T08:52:04.712Z,11.23
2018-03-17T08:58:05.559Z,6.01
2018-03-17T09:02:06.278Z,4.87
2018-03-17T09:08:06.990Z,4.37
2018-03-17T09:14:07.879Z,4.7
2018-03-17T09:18:08.975Z,4.75
2018-03-17T09:24:09.834Z,12.91
2018-03-17T09:28:10.781Z,12.65
2018-03-17T09:30:11.934Z,10.78
2018-03-17T09:34:12.674Z,11.13
2018-03-17T09:40:13.472Z,10.34
2018-03-17T09:44:14.345Z,10.37
2018-03-17T09:50:15.150Z,8
2018-03-17T09:54:15.878Z,6.66
2018-03-17T10:00:17.096Z,6.28
2018-03-17T10:06:17.813Z,8.77
2018-03-17T10:10:18.555Z,8.78
2018-03-17T10:16:19.301Z,9.27
2018-03-17T10:20:20.181Z,9.86
2018-03-17T10:22:21.022Z,9.17
2018-03-17T10:26:21.739Z,7.92
2018-03-17T10:32:22.512Z,8.72
2018-03-17T10:36:23.344Z,8.69
2018-03-17T10:42:24.070Z,6.17
2018-03-17T10:46:24.759Z,5.59
2018-03-17T10:48:25.562Z,5
2018-03-17T10:52:26.226Z,5.19
2018-03-17T10:58:26.893Z,6.24
2018-03-17T11:02:27.616Z,5.51
2018-03-17T11:08:28.372Z,3.25
2018-03-17T11:12:29.210Z,2.17
2018-03-17T11:14:29.928Z,1.91
2018-03-17T11:18:30.644Z,1.94
2018-03-17T11:24:31.472Z,2.46
2018-03-17T11:28:32.263Z,1.78
2018-03-17T11:34:33.144Z,2.5
2018-03-17T11:38:33.893Z,2.51
2018-03-17T11:40:34.485Z,2.62
2018-03-17T11:44:35.270Z,2.22
2018-03-17T11:50:36.076Z,2.3
2018-03-17T11:54:36.836Z,2.3
2018-03-17T12:00:38.008Z,2.91
2018-03-17T12:04:38.760Z,3.12
2018-03-17T12:06:39.490Z,3.14
2018-03-17T12:10:40.185Z,2.88
2018-03-17T12:16:40.936Z,2.51
2018-03-17T12:20:41.711Z,1.85
2018-03-17T12:26:42.486Z,1.6
2018-03-17T12:30:43.216Z,1.35
2018-03-17T12:32:44.029Z,1.46
2018-03-17T12:36:45.314Z,1.5
2018-03-17T12:42:46.755Z,1.78
2018-03-17T12:46:47.661Z,1.89
2018-03-17T12:52:48.508Z,1.37
2018-03-17T12:56:49.213Z,1.35
2018-03-17T12:58:50.023Z,1.12
2018-03-17T13:02:51.091Z,1.11
2018-03-17T13:08:51.819Z,1.6
2018-03-17T13:12:52.603Z,0.98
2018-03-17T13:18:53.426Z,1.18
2018-03-17T13:22:54.465Z,1.1
2018-03-17T13:24:55.760Z,1.29
2018-03-17T13:28:56.772Z,0.93
2018-03-17T13:34:57.800Z,1.15
2018-03-17T13:38:58.671Z,0.9
2018-03-17T13:44:59.457Z,1.42
2018-03-17T13:49:00.301Z,1.25
2018-03-17T13:55:01.103Z,1.42
2018-03-17T14:01:02.033Z,1.81
2018-03-17T14:05:02.766Z,1.4
2018-03-17T14:11:03.617Z,1.17
2018-03-17T14:15:04.477Z,1.01
2018-03-17T14:17:05.258Z,1.14
2018-03-17T14:21:06.058Z,1.32
2018-03-17T14:27:06.814Z,2.76
2018-03-17T14:31:07.820Z,2.33
2018-03-17T14:37:08.587Z,2.02
2018-03-17T14:41:09.529Z,1.43
2018-03-17T14:43:10.255Z,1.32
2018-03-17T14:47:11.027Z,1.15
2018-03-17T14:53:16.420Z,1.65
2018-03-17T14:57:17.683Z,1.35
2018-03-17T15:03:18.444Z,2.65
2018-03-17T15:07:19.243Z,1.54
2018-03-17T15:13:20.018Z,2.07
2018-03-17T15:19:20.991Z,2.07
2018-03-17T15:23:22.019Z,1.81
2018-03-17T15:29:22.862Z,1.51
2018-03-17T15:33:23.612Z,1.58
2018-03-17T15:39:24.581Z,1.95
2018-03-17T15:45:25.859Z,2.54
2018-03-17T15:49:26.685Z,2.37
2018-03-17T15:55:27.542Z,2.72
2018-03-17T15:59:28.189Z,2.71
2018-03-17T16:05:29.113Z,3.04
2018-03-17T16:11:29.798Z,3.18
2018-03-17T16:15:30.585Z,2.94
2018-03-17T16:21:31.658Z,2.98
2018-03-17T16:25:32.501Z,2.74
2018-03-17T16:31:33.420Z,3.23
2018-03-17T16:37:34.218Z,2.78
2018-03-17T16:41:35.022Z,2.79
2018-03-17T16:47:36.089Z,2.96
2018-03-17T16:51:36.953Z,2.23
2018-03-17T16:57:37.691Z,2.05
2018-03-17T17:03:38.530Z,2.67
2018-03-17T17:07:39.483Z,2.29
2018-03-17T17:13:40.391Z,2.54
2018-03-17T17:17:41.216Z,2.39
2018-03-17T17:23:42.184Z,2.52
2018-03-17T17:29:43.015Z,3.26
2018-03-17T17:33:43.770Z,3.08
2018-03-17T17:39:44.658Z,3.11
2018-03-17T17:43:45.493Z,2.86
2018-03-17T17:49:46.268Z,2.38
2018-03-17T17:55:47.759Z,4.21
2018-03-17T17:59:48.568Z,4.16
2018-03-17T18:05:49.611Z,3.57
2018-03-17T18:09:50.359Z,3.11
2018-03-17T18:15:51.414Z,3.3
2018-03-17T18:21:52.463Z,7.74
2018-03-17T18:25:53.482Z,9.13
2018-03-17T18:31:54.577Z,3.31
2018-03-17T18:35:55.440Z,3.71
2018-03-17T18:41:56.161Z,4.54
2018-03-17T18:47:57.071Z,4.14
2018-03-17T18:51:58.030Z,3.03
2018-03-17T18:57:58.804Z,4.68
2018-03-17T19:01:59.578Z,4.05
2018-03-17T19:04:00.243Z,4.19
2018-03-17T19:08:01.147Z,3.99
2018-03-17T19:14:01.980Z,3.76
2018-03-17T19:18:02.713Z,3.46
2018-03-17T19:24:03.489Z,3.87
2018-03-17T19:28:04.232Z,3.71
2018-03-17T19:30:05.008Z,4.57
2018-03-17T19:34:05.803Z,4.72
2018-03-17T19:40:06.575Z,5.08
2018-03-17T19:44:07.344Z,5.57
2018-03-17T19:50:08.129Z,5.15
2018-03-17T19:54:08.841Z,5.15
2018-03-17T19:56:09.559Z,5.22
2018-03-17T20:00:10.750Z,4.66
2018-03-17T20:06:11.516Z,5.34
2018-03-17T20:10:12.329Z,5.37
2018-03-17T20:16:13.539Z,5.38
2018-03-17T20:20:14.303Z,5.03
2018-03-17T20:22:15.091Z,6.66
2018-03-17T20:26:15.952Z,7.13
2018-03-17T20:32:16.731Z,6.36
2018-03-17T20:36:17.553Z,5.52
2018-03-17T20:42:18.290Z,5.39
2018-03-17T20:46:19.281Z,4.57
2018-03-17T20:48:20.069Z,4.86
2018-03-17T20:52:20.974Z,4.89
2018-03-17T20:58:21.780Z,4.68
2018-03-17T21:02:22.624Z,5.21
2018-03-17T21:08:23.422Z,5.48
2018-03-17T21:12:24.358Z,5.39
2018-03-17T21:14:25.147Z,4.69
2018-03-17T21:18:25.899Z,4.23
2018-03-17T21:24:26.746Z,4.3
2018-03-17T21:28:27.614Z,4.55
2018-03-17T21:34:28.319Z,4.83
2018-03-17T21:38:28.993Z,4.7
2018-03-17T21:40:29.792Z,5.16
2018-03-17T21:44:30.707Z,4.14
2018-03-17T21:50:31.570Z,4.63
2018-03-17T21:54:32.380Z,4.28
2018-03-17T22:00:33.220Z,4.82
2018-03-17T22:04:34.323Z,4.42
2018-03-17T22:10:35.171Z,4.43
2018-03-17T22:16:36.264Z,4.58
2018-03-17T22:20:37.260Z,3.85
2018-03-17T22:26:38.135Z,3.76
2018-03-17T22:30:38.891Z,3.88
2018-03-17T22:36:39.660Z,4.41
2018-03-17T22:42:40.562Z,4.23
2018-03-17T22:46:41.393Z,3.97
2018-03-17T22:52:42.350Z,3.82
2018-03-17T22:56:43.310Z,3.65
2018-03-17T23:02:44.168Z,3.66
2018-03-17T23:08:44.951Z,4.26
2018-03-17T23:12:45.737Z,3.64
2018-03-17T23:18:46.508Z,3.94
2018-03-17T23:22:47.339Z,4.09
2018-03-17T23:24:48.029Z,3.69
2018-03-17T23:28:48.827Z,4.1
2018-03-17T23:34:49.572Z,4.24
2018-03-17T23:38:50.320Z,4.23
2018-03-17T23:44:51.097Z,3.92
2018-03-17T23:48:51.903Z,4.07
2018-03-17T23:50:52.659Z,4.3
2018-03-17T23:54:53.264Z,3.82
